Time;durP1;ratioP1;P1;durP2;ratioP2;P2;SDS_P1;SDS_P2;PMS_P1;PMS_P2;Temp;Humidity;BMP_temperature;BMP_pressure;BME280_temperature;BME280_humidity;BME280_pressure;Samples;Min_cycle;Max_cycle;Signal;HPM_P1;HPM_P2
2022/10/11 00:02:10;;;;;;;5.03;4.53;;;11.50;99.90;;;;;;5086174;28;20213;-50
2022/10/11 00:04:37;;;;;;;6.37;4.97;;;11.40;99.90;;;;;;5082504;28;20249;-49
2022/10/11 00:07:04;;;;;;;6.47;4.83;;;11.40;99.90;;;;;;5082446;28;20264;-50
2022/10/11 00:09:31;;;;;;;6.07;4.20;;;11.40;99.90;;;;;;5086497;28;20203;-50
2022/10/11 00:11:58;;;;;;;5.50;4.23;;;11.40;99.90;;;;;;5085586;28;20247;-50
2022/10/11 00:14:27;;;;;;;5.53;4.37;;;11.40;99.90;;;;;;5077006;28;20669;-50
2022/10/11 00:16:55;;;;;;;4.40;4.00;;;11.50;99.90;;;;;;5081612;28;20624;-52
2022/10/11 00:19:22;;;;;;;4.50;4.20;;;11.50;99.90;;;;;;5077857;28;20200;-50
2022/10/11 00:21:49;;;;;;;4.37;3.47;;;11.50;99.90;;;;;;5074365;28;20714;-50
2022/10/11 00:24:16;;;;;;;4.50;4.20;;;11.50;99.90;;;;;;5074621;28;20213;-50
2022/10/11 00:26:44;;;;;;;3.47;3.27;;;11.50;99.90;;;;;;5085051;28;20212;-50
2022/10/11 00:29:11;;;;;;;4.50;4.20;;;11.40;99.90;;;;;;5086298;28;20199;-50
2022/10/11 00:31:40;;;;;;;5.23;4.73;;;11.40;99.90;;;;;;5094537;28;20227;-50
2022/10/11 00:34:07;;;;;;;3.53;3.33;;;11.40;99.90;;;;;;5094728;28;20201;-50
2022/10/11 00:36:34;;;;;;;4.43;4.13;;;11.50;99.90;;;;;;5086688;28;20665;-50
2022/10/11 00:39:01;;;;;;;3.77;3.33;;;11.50;99.90;;;;;;5085548;28;20199;-50
2022/10/11 00:41:28;;;;;;;4.97;4.47;;;11.50;99.90;;;;;;5081560;28;20191;-50
2022/10/11 00:44:15;;;;;;;4.17;3.70;;;11.50;99.90;;;;;;5076890;28;20200;-49
2022/10/11 00:46:45;;;;;;;3.60;3.40;;;11.40;99.90;;;;;;5085433;28;20200;-50
2022/10/11 00:49:19;;;;;;;3.47;3.17;;;11.50;99.90;;;;;;5081021;28;20201;-50
2022/10/11 00:51:51;;;;;;;3.43;3.23;;;11.50;99.90;;;;;;5073983;28;20581;-50
2022/10/11 00:54:22;;;;;;;3.70;3.40;;;11.50;99.90;;;;;;5073828;28;20201;-50
2022/10/11 00:56:52;;;;;;;3.60;3.40;;;11.50;99.90;;;;;;5086197;28;20199;-50
2022/10/11 00:59:22;;;;;;;3.73;3.53;;;11.50;99.90;;;;;;5082206;28;20562;-50
2022/10/11 01:01:51;;;;;;;3.87;3.67;;;11.50;99.90;;;;;;5081775;28;20702;-50
2022/10/11 01:04:18;;;;;;;3.60;3.40;;;11.60;99.90;;;;;;5080980;28;20199;-50
2022/10/11 01:06:45;;;;;;;4.27;3.40;;;11.50;99.90;;;;;;5083238;28;20252;-50
2022/10/11 01:09:13;;;;;;;9.07;4.07;;;11.60;99.90;;;;;;5084698;28;20253;-50
2022/10/11 01:11:42;;;;;;;4.67;3.93;;;11.70;99.90;;;;;;5073518;28;20219;-49
2022/10/11 01:14:40;;;;;;;5.47;4.60;;;11.70;99.90;;;;;;5073476;28;20265;-50
2022/10/11 01:17:19;;;;;;;5.10;3.60;;;11.70;99.90;;;;;;5058336;28;20798;-50
2022/10/11 01:20:23;;;;;;;4.53;4.20;;;11.70;99.90;;;;;;5081307;28;20269;-50
2022/10/11 01:23:42;;;;;;;4.33;3.93;;;11.70;99.90;;;;;;5080238;28;20223;-50
2022/10/11 01:26:34;;;;;;;6.30;4.20;;;11.80;99.90;;;;;;5020399;28;20229;-50
2022/10/11 01:29:11;;;;;;;5.23;4.73;;;11.70;99.90;;;;;;5022228;28;20205;-49
2022/10/11 01:31:46;;;;;;;4.57;4.27;;;11.70;99.90;;;;;;5072846;28;20226;-50
2022/10/11 01:34:20;;;;;;;4.10;3.80;;;11.80;99.90;;;;;;5084109;28;20260;-50
2022/10/11 01:36:51;;;;;;;5.00;4.50;;;11.80;99.90;;;;;;5079002;28;20208;-50
2022/10/11 01:39:24;;;;;;;5.83;5.37;;;11.80;99.90;;;;;;5086544;28;20196;-50
2022/10/11 01:41:54;;;;;;;5.13;4.73;;;11.80;99.90;;;;;;5082145;28;20260;-50
2022/10/11 01:44:24;;;;;;;5.57;5.03;;;11.80;99.90;;;;;;5072454;28;20193;-50
2022/10/11 01:46:53;;;;;;;6.70;6.07;;;11.80;99.90;;;;;;5081506;28;20630;-50
2022/10/11 01:49:20;;;;;;;7.83;5.57;;;11.70;99.90;;;;;;5079258;28;20260;-50
2022/10/11 01:51:50;;;;;;;5.90;5.17;;;11.80;99.90;;;;;;5074694;28;20277;-50
2022/10/11 01:54:40;;;;;;;6.80;4.30;;;11.80;99.90;;;;;;5072661;28;20288;-50
2022/10/11 01:57:50;;;;;;;4.70;4.30;;;11.80;99.90;;;;;;5075126;28;20204;-50
2022/10/11 02:00:19;;;;;;;4.47;4.10;;;11.70;99.90;;;;;;5001609;28;20206;-50
2022/10/11 02:03:02;;;;;;;5.57;5.07;;;11.70;99.90;;;;;;5007089;28;20233;-50
2022/10/11 02:05:37;;;;;;;4.47;4.17;;;11.70;99.90;;;;;;5053994;28;20641;-50
2022/10/11 02:08:09;;;;;;;4.80;4.40;;;11.70;99.90;;;;;;5092913;28;20204;-50
2022/10/11 02:10:40;;;;;;;6.00;4.60;;;11.70;99.90;;;;;;5089201;28;20195;-50
2022/10/11 02:13:13;;;;;;;6.80;4.60;;;11.70;99.90;;;;;;5072066;28;20266;-50
2022/10/11 02:15:42;;;;;;;4.30;4.00;;;11.70;99.90;;;;;;5077945;28;20238;-50
2022/10/11 02:18:14;;;;;;;4.83;4.47;;;11.70;99.90;;;;;;5076985;28;20208;-50
2022/10/11 02:20:43;;;;;;;5.23;4.83;;;11.70;99.90;;;;;;5074824;28;20667;-50
2022/10/11 02:29:57;;;;;;;4.03;3.70;;;11.80;99.90;;;;;;5072027;28;20179;-50
2022/10/11 02:32:25;;;;;;;9.60;4.23;;;11.80;99.90;;;;;;5084910;28;20966;-50
2022/10/11 02:34:56;;;;;;;10.53;4.50;;;11.70;99.90;;;;;;5080445;28;20658;-49
2022/10/11 02:37:31;;;;;;;5.30;4.17;;;11.70;99.90;;;;;;5080519;28;20189;-50
2022/10/11 02:40:02;;;;;;;5.30;3.93;;;11.70;99.90;;;;;;5075386;28;20204;-50
2022/10/11 02:42:38;;;;;;;3.33;3.13;;;11.60;99.90;;;;;;5091355;28;20220;-50
2022/10/11 02:45:10;;;;;;;4.03;3.73;;;11.60;99.90;;;;;;5090714;28;20199;-50
2022/10/11 02:47:38;;;;;;;4.00;3.70;;;11.60;99.90;;;;;;5077368;28;20260;-50
2022/10/11 02:50:08;;;;;;;4.37;4.10;;;11.60;99.90;;;;;;5079603;28;20233;-50
2022/10/11 03:06:05;;;;;;;5.40;4.13;;;11.40;99.90;;;;;;5077809;28;20177;-50
2022/10/11 03:08:32;;;;;;;6.27;4.33;;;11.40;99.90;;;;;;5081462;28;20248;-50
2022/10/11 03:10:59;;;;;;;4.67;4.03;;;11.40;99.90;;;;;;5074782;28;20627;-50
2022/10/11 03:13:26;;;;;;;4.53;4.23;;;11.40;99.90;;;;;;5082663;28;20231;-50
2022/10/11 03:15:55;;;;;;;4.30;4.03;;;11.40;99.90;;;;;;5076512;28;20200;-50
2022/10/11 03:18:22;;;;;;;3.93;3.50;;;11.40;99.90;;;;;;5077894;28;20662;-50
2022/10/11 03:20:49;;;;;;;5.03;4.60;;;11.40;99.90;;;;;;5091898;28;20280;-50
2022/10/11 03:23:17;;;;;;;4.33;4.00;;;11.40;99.90;;;;;;5091418;28;20649;-50
2022/10/11 03:25:45;;;;;;;4.60;4.20;;;11.50;99.90;;;;;;5080471;28;20212;-50
2022/10/11 03:28:12;;;;;;;8.20;5.50;;;11.50;99.90;;;;;;5084825;28;20286;-50
2022/10/11 03:30:39;;;;;;;6.20;5.63;;;11.50;99.90;;;;;;5087572;28;20261;-50
2022/10/11 03:33:06;;;;;;;7.13;4.70;;;11.50;99.90;;;;;;5081928;28;20218;-50
2022/10/11 03:35:33;;;;;;;4.47;4.17;;;11.50;99.90;;;;;;5080830;28;20575;-50
2022/10/11 03:38:00;;;;;;;4.00;3.60;;;11.60;99.90;;;;;;5091441;28;20272;-49
2022/10/11 03:40:28;;;;;;;4.77;4.43;;;11.60;99.90;;;;;;5077001;28;20200;-50
2022/10/11 03:42:55;;;;;;;4.17;3.87;;;11.60;99.90;;;;;;5071253;28;20221;-50
2022/10/11 03:45:22;;;;;;;3.73;3.53;;;11.60;99.90;;;;;;5075382;28;20217;-50
2022/10/11 03:47:49;;;;;;;4.60;4.27;;;11.60;99.90;;;;;;5086909;28;20207;-50
2022/10/11 03:50:16;;;;;;;5.87;4.23;;;11.70;99.90;;;;;;5085147;28;20200;-50
2022/10/11 03:52:43;;;;;;;5.20;4.33;;;11.70;99.90;;;;;;5090682;28;20242;-50
2022/10/11 03:55:10;;;;;;;6.37;3.67;;;11.80;99.90;;;;;;5080078;28;20201;-50
2022/10/11 03:57:39;;;;;;;5.30;4.77;;;11.80;99.90;;;;;;5085716;28;20195;-50
2022/10/11 04:00:07;;;;;;;5.40;4.40;;;11.80;99.90;;;;;;5086848;28;20650;-50
2022/10/11 04:02:34;;;;;;;6.53;4.47;;;11.70;99.90;;;;;;5094435;28;20220;-50
2022/10/11 04:05:02;;;;;;;6.13;3.80;;;11.80;99.90;;;;;;5095084;28;20673;-50
2022/10/11 04:07:29;;;;;;;4.00;3.70;;;11.80;99.90;;;;;;5095235;28;20203;-50
2022/10/11 04:09:56;;;;;;;4.33;4.03;;;11.80;99.90;;;;;;5095425;28;20202;-50
2022/10/11 04:12:23;;;;;;;4.77;4.30;;;11.70;99.90;;;;;;5090596;28;20216;-50
2022/10/11 04:14:51;;;;;;;5.53;4.30;;;11.70;99.90;;;;;;5084289;28;20254;-50
2022/10/11 04:17:18;;;;;;;4.73;4.13;;;11.70;99.90;;;;;;5074639;28;20211;-50
2022/10/11 04:19:45;;;;;;;9.63;4.63;;;11.70;99.90;;;;;;5075455;28;20282;-50
2022/10/11 04:22:12;;;;;;;4.50;4.10;;;11.70;99.90;;;;;;5083825;28;20299;-50
2022/10/11 04:24:39;;;;;;;7.97;4.60;;;11.60;99.90;;;;;;5091451;28;20208;-50
2022/10/11 04:27:06;;;;;;;5.50;4.87;;;11.60;99.90;;;;;;5094826;28;20206;-50
2022/10/11 04:29:33;;;;;;;5.17;4.63;;;11.60;99.90;;;;;;5091171;28;20205;-50
2022/10/11 04:32:02;;;;;;;6.03;4.97;;;11.60;99.90;;;;;;5084133;28;20689;-50
2022/10/11 04:34:28;;;;;;;8.60;5.33;;;11.60;99.90;;;;;;5091020;28;20200;-50
2022/10/11 04:36:55;;;;;;;5.53;4.70;;;11.60;99.90;;;;;;5084806;28;20203;-50
2022/10/11 04:39:23;;;;;;;5.57;4.40;;;11.60;99.90;;;;;;5094419;28;20203;-50
2022/10/11 04:41:50;;;;;;;7.33;6.73;;;11.60;99.90;;;;;;5092730;28;20282;-50
2022/10/11 04:44:17;;;;;;;6.20;5.27;;;11.60;99.90;;;;;;5076299;28;20642;-50
2022/10/11 04:46:44;;;;;;;5.83;4.97;;;11.60;99.90;;;;;;5081053;28;20600;-50
2022/10/11 04:49:13;;;;;;;7.90;5.70;;;11.60;99.90;;;;;;5087603;28;20735;-50
2022/10/11 04:51:40;;;;;;;8.10;5.13;;;11.70;99.90;;;;;;5094381;28;20219;-50
2022/10/11 04:54:07;;;;;;;6.70;4.17;;;11.70;99.90;;;;;;5092585;28;20234;-50
2022/10/11 04:56:34;;;;;;;6.13;4.57;;;11.70;99.90;;;;;;5094150;28;20207;-50
2022/10/11 04:59:01;;;;;;;7.60;5.17;;;11.60;99.90;;;;;;5092386;28;20199;-49
2022/10/11 05:01:27;;;;;;;5.37;4.87;;;11.70;99.90;;;;;;5089369;28;20624;-49
2022/10/11 05:03:55;;;;;;;4.47;4.17;;;11.70;99.90;;;;;;5085120;28;20202;-49
2022/10/11 05:06:23;;;;;;;5.67;4.53;;;11.70;99.90;;;;;;5091876;28;20908;-49
2022/10/11 05:08:51;;;;;;;5.80;4.03;;;11.60;99.90;;;;;;5086745;28;20892;-50
2022/10/11 05:11:18;;;;;;;4.03;3.73;;;11.70;99.90;;;;;;5092350;28;20252;-49
2022/10/11 05:13:46;;;;;;;4.93;4.53;;;11.70;99.90;;;;;;5081101;28;20223;-49
2022/10/11 05:16:14;;;;;;;6.07;5.40;;;11.70;99.90;;;;;;5088600;28;20199;-50
2022/10/11 05:18:44;;;;;;;6.77;5.63;;;11.70;99.90;;;;;;5093122;28;20627;-50
2022/10/11 05:21:16;;;;;;;9.33;6.20;;;11.70;99.90;;;;;;5088469;28;20253;-50
2022/10/11 05:23:45;;;;;;;7.17;5.73;;;11.70;99.90;;;;;;5087937;28;20656;-48
2022/10/11 05:26:12;;;;;;;7.53;6.67;;;11.70;99.90;;;;;;5084391;28;20286;-49
2022/10/11 05:28:41;;;;;;;9.23;7.03;;;11.70;99.90;;;;;;5084472;28;20200;-50
2022/10/11 05:31:08;;;;;;;8.90;7.17;;;11.70;99.90;;;;;;5090437;28;20196;-49
2022/10/11 05:33:36;;;;;;;7.50;6.73;;;11.70;99.90;;;;;;5078435;28;20217;-49
2022/10/11 05:36:04;;;;;;;7.40;6.70;;;11.70;99.90;;;;;;5087813;28;20280;-50
2022/10/11 05:38:31;;;;;;;9.43;7.53;;;11.70;99.90;;;;;;5084658;28;20204;-50
2022/10/11 05:41:01;;;;;;;7.10;6.23;;;11.80;99.90;;;;;;5083028;28;20208;-50
2022/10/11 05:43:29;;;;;;;7.40;6.00;;;11.80;99.90;;;;;;5075661;28;20215;-49
2022/10/11 05:45:57;;;;;;;7.87;5.30;;;11.80;99.90;;;;;;5085776;28;20257;-50
2022/10/11 05:48:25;;;;;;;7.87;6.47;;;11.80;99.90;;;;;;5087994;28;20205;-50
2022/10/11 05:50:52;;;;;;;7.87;6.63;;;11.90;99.90;;;;;;5082256;28;20209;-50
2022/10/11 05:53:20;;;;;;;4.80;4.40;;;11.90;99.90;;;;;;5081448;28;20227;-49
2022/10/11 05:55:47;;;;;;;5.67;4.50;;;11.90;99.90;;;;;;5088850;28;20242;-50
2022/10/11 05:58:17;;;;;;;5.70;4.97;;;11.90;99.90;;;;;;5092760;28;20632;-50
2022/10/11 06:00:44;;;;;;;5.47;5.07;;;12.00;99.90;;;;;;5083241;28;20211;-49
2022/10/11 06:03:12;;;;;;;9.00;4.70;;;12.00;99.90;;;;;;5090507;28;20219;-50
2022/10/11 06:05:39;;;;;;;8.07;4.17;;;12.00;99.90;;;;;;5089382;28;20260;-50
2022/10/11 06:08:08;;;;;;;4.73;4.27;;;12.00;99.90;;;;;;5079779;28;20207;-50
2022/10/11 06:10:37;;;;;;;7.13;5.27;;;12.10;99.90;;;;;;5086786;28;20200;-49
2022/10/11 06:13:04;;;;;;;10.67;4.50;;;12.00;99.90;;;;;;5078416;28;20220;-49
2022/10/11 06:15:34;;;;;;;5.10;4.23;;;12.10;99.90;;;;;;5085306;28;20202;-50
2022/10/11 06:18:02;;;;;;;4.47;4.07;;;12.10;99.90;;;;;;5087620;28;20203;-50
2022/10/11 06:20:30;;;;;;;6.93;4.27;;;12.10;99.90;;;;;;5090405;28;20193;-51
2022/10/11 06:22:59;;;;;;;6.70;4.03;;;12.10;99.90;;;;;;5088949;28;20796;-51
2022/10/11 06:25:26;;;;;;;4.40;4.00;;;12.10;99.90;;;;;;5083769;28;20207;-51
2022/10/11 06:27:53;;;;;;;5.97;4.33;;;12.20;99.90;;;;;;5086866;28;20211;-51
2022/10/11 06:30:23;;;;;;;4.10;3.77;;;12.20;99.90;;;;;;5076265;28;20200;-52
2022/10/11 06:32:51;;;;;;;5.30;4.90;;;12.30;99.90;;;;;;5083386;28;20654;-51
2022/10/11 06:35:18;;;;;;;6.30;3.80;;;12.30;99.90;;;;;;5091136;28;20268;-53
2022/10/11 06:37:45;;;;;;;3.93;3.63;;;12.20;99.90;;;;;;5081849;28;20754;-50
2022/10/11 06:40:12;;;;;;;8.40;4.60;;;12.30;99.90;;;;;;5082877;28;20688;-51
2022/10/11 06:42:42;;;;;;;5.17;4.27;;;12.30;99.90;;;;;;5078647;28;20219;-51
2022/10/11 06:45:10;;;;;;;4.97;3.90;;;12.30;99.90;;;;;;5082356;28;20674;-51
2022/10/11 06:47:37;;;;;;;6.83;4.40;;;12.40;99.90;;;;;;5079619;28;20203;-52
2022/10/11 06:50:06;;;;;;;4.77;4.23;;;12.40;99.90;;;;;;5088825;28;20217;-53
2022/10/11 06:52:33;;;;;;;6.10;4.93;;;12.50;99.90;;;;;;5088855;28;20722;-50
2022/10/11 06:55:00;;;;;;;5.07;4.53;;;12.50;99.90;;;;;;5091158;28;20196;-52
2022/10/11 06:57:29;;;;;;;4.73;4.43;;;12.60;99.90;;;;;;5079572;28;20207;-51
2022/10/11 06:59:56;;;;;;;5.63;4.23;;;12.70;99.90;;;;;;5071928;28;20216;-50
2022/10/11 07:02:23;;;;;;;4.43;4.10;;;12.70;99.90;;;;;;5071959;28;20307;-51
2022/10/11 07:04:50;;;;;;;3.80;3.50;;;12.80;99.90;;;;;;5075546;28;20662;-50
2022/10/11 07:07:19;;;;;;;4.00;3.60;;;12.90;99.90;;;;;;5080916;28;20196;-51
2022/10/11 07:09:46;;;;;;;4.20;3.90;;;13.00;99.90;;;;;;5090558;28;20229;-49
2022/10/11 07:12:13;;;;;;;6.40;4.40;;;13.10;99.90;;;;;;5091730;28;20636;-50
2022/10/11 07:14:40;;;;;;;6.60;5.00;;;13.10;99.90;;;;;;5090017;28;20223;-50
2022/10/11 07:17:07;;;;;;;5.50;4.97;;;13.20;99.90;;;;;;5091909;28;20583;-50
2022/10/11 07:19:34;;;;;;;7.77;6.10;;;13.30;99.90;;;;;;5091764;28;20212;-50
2022/10/11 07:22:01;;;;;;;4.37;4.07;;;13.30;99.90;;;;;;5091518;28;20725;-51
2022/10/11 07:24:30;;;;;;;4.17;3.77;;;13.40;99.90;;;;;;5091711;28;20203;-50
2022/10/11 07:26:57;;;;;;;4.03;3.73;;;13.50;99.90;;;;;;5090776;28;20211;-50
2022/10/11 07:29:24;;;;;;;7.10;4.63;;;13.60;99.90;;;;;;5084010;28;20197;-50
2022/10/11 07:31:51;;;;;;;7.53;4.57;;;13.70;99.90;;;;;;5088214;28;20604;-50
2022/10/11 07:34:19;;;;;;;7.83;5.07;;;13.70;99.90;;;;;;5095371;28;20216;-51
2022/10/11 07:36:46;;;;;;;6.73;5.47;;;13.70;99.90;;;;;;5087513;28;20620;-51
2022/10/11 07:39:14;;;;;;;4.93;4.53;;;13.80;99.90;;;;;;5080037;28;20205;-51
2022/10/11 07:41:42;;;;;;;4.13;3.73;;;13.90;99.90;;;;;;5084574;28;20242;-51
2022/10/11 07:44:09;;;;;;;5.37;4.60;;;13.90;99.90;;;;;;5079875;28;20202;-50
2022/10/11 07:46:36;;;;;;;4.20;3.90;;;13.90;99.90;;;;;;5087107;28;20669;-51
2022/10/11 07:49:03;;;;;;;8.20;4.57;;;13.90;99.90;;;;;;5078567;28;20208;-50
2022/10/11 07:51:31;;;;;;;4.73;4.33;;;13.80;99.90;;;;;;5090090;28;20202;-51
2022/10/11 07:53:58;;;;;;;3.50;3.23;;;13.80;99.90;;;;;;5095173;28;20224;-51
2022/10/11 07:56:26;;;;;;;5.37;3.20;;;13.90;99.90;;;;;;5095221;28;20204;-51
2022/10/11 07:58:57;;;;;;;3.70;3.50;;;14.00;99.90;;;;;;5094728;28;20200;-51
2022/10/11 08:01:27;;;;;;;4.70;3.83;;;14.00;99.90;;;;;;5086595;28;20636;-51
2022/10/11 08:03:55;;;;;;;3.30;3.10;;;14.10;99.90;;;;;;5087774;28;20674;-52
2022/10/11 08:06:24;;;;;;;5.60;4.17;;;14.20;99.90;;;;;;5092670;28;20213;-51
2022/10/11 08:08:52;;;;;;;6.03;5.47;;;14.30;99.90;;;;;;5094105;28;20670;-50
2022/10/11 08:11:24;;;;;;;7.90;5.23;;;14.40;99.90;;;;;;5094709;28;20200;-51
2022/10/11 08:13:51;;;;;;;6.30;5.80;;;14.50;99.90;;;;;;5094503;28;20217;-50
2022/10/11 08:16:20;;;;;;;5.37;4.97;;;14.70;99.90;;;;;;5094838;28;20303;-51
2022/10/11 08:18:48;;;;;;;7.97;4.93;;;14.90;99.90;;;;;;5088200;28;20284;-51
2022/10/11 08:21:17;;;;;;;4.83;4.20;;;15.00;99.90;;;;;;5082562;28;20543;-51
2022/10/11 08:23:47;;;;;;;4.23;3.83;;;15.10;99.90;;;;;;5078832;28;20662;-51
2022/10/11 08:26:14;;;;;;;5.17;4.80;;;15.30;99.90;;;;;;5079349;28;20201;-50
2022/10/11 08:28:44;;;;;;;4.83;4.50;;;15.40;99.90;;;;;;5085201;28;20201;-51
2022/10/11 08:31:13;;;;;;;7.07;4.40;;;15.70;99.90;;;;;;5074364;28;20690;-51
2022/10/11 08:33:45;;;;;;;6.77;4.33;;;15.90;99.90;;;;;;5073879;28;20691;-50
2022/10/11 08:36:13;;;;;;;6.57;4.37;;;16.00;99.90;;;;;;5089393;28;20239;-51
2022/10/11 08:38:44;;;;;;;4.20;3.70;;;16.20;99.90;;;;;;5092633;28;20674;-51
2022/10/11 08:41:26;;;;;;;6.07;4.00;;;16.50;99.90;;;;;;5083348;28;20201;-51
2022/10/11 08:44:01;;;;;;;4.17;3.83;;;16.70;99.90;;;;;;5091161;28;20200;-51
2022/10/11 08:46:31;;;;;;;3.17;2.87;;;17.40;99.90;;;;;;5078360;28;20201;-51
2022/10/11 08:49:01;;;;;;;3.57;3.23;;;18.40;99.90;;;;;;5080628;28;20201;-50
2022/10/11 08:51:32;;;;;;;2.57;2.47;;;19.20;99.90;;;;;;5072090;28;20209;-50
2022/10/11 08:54:04;;;;;;;2.47;2.37;;;20.10;99.90;;;;;;5071837;28;20240;-51
2022/10/11 08:56:35;;;;;;;2.93;2.73;;;20.40;99.90;;;;;;5083614;28;20216;-51
2022/10/11 08:59:10;;;;;;;7.77;4.40;;;21.10;99.90;;;;;;5077854;28;20201;-51
2022/10/11 09:01:43;;;;;;;2.03;1.80;;;21.60;99.90;;;;;;5086706;28;20220;-51
2022/10/11 09:04:14;;;;;;;2.97;2.87;;;21.70;99.90;;;;;;5080749;28;20201;-50
2022/10/11 09:06:50;;;;;;;6.70;2.70;;;22.00;99.90;;;;;;5074838;28;20697;-50
2022/10/11 09:09:42;;;;;;;3.40;3.20;;;22.20;99.90;;;;;;5092777;28;20761;-51
2022/10/11 09:12:18;;;;;;;4.50;3.07;;;21.90;99.90;;;;;;5077193;28;20221;-50
2022/10/11 09:15:00;;;;;;;2.67;2.47;;;22.30;99.90;;;;;;5089080;28;20219;-50
2022/10/11 09:17:43;;;;;;;2.60;2.50;;;22.30;99.90;;;;;;5087445;28;20680;-50
2022/10/11 09:20:36;;;;;;;2.83;2.53;;;22.40;99.90;;;;;;5083198;28;20203;-50
2022/10/11 09:23:09;;;;;;;2.43;2.23;;;22.50;99.90;;;;;;5075421;28;20224;-50
2022/10/11 09:25:43;;;;;;;7.10;3.10;;;22.50;99.90;;;;;;5075788;28;20550;-50
2022/10/11 09:28:23;;;;;;;3.97;3.00;;;22.40;99.90;;;;;;5076604;28;20581;-51
2022/10/11 09:30:54;;;;;;;2.97;2.77;;;21.60;99.90;;;;;;5080489;28;20201;-50
2022/10/11 09:33:29;;;;;;;3.50;3.20;;;22.20;99.90;;;;;;5081499;28;20718;-51
2022/10/11 09:35:58;;;;;;;3.53;3.23;;;22.20;99.90;;;;;;5083464;28;20212;-50
2022/10/11 09:38:38;;;;;;;3.87;2.73;;;22.40;99.90;;;;;;5084730;28;20208;-52
2022/10/11 09:41:13;;;;;;;3.33;3.03;;;22.50;99.90;;;;;;5084528;28;20204;-50
2022/10/11 09:43:47;;;;;;;3.47;3.13;;;22.50;99.90;;;;;;5076011;28;20185;-51
2022/10/11 09:46:22;;;;;;;3.50;3.07;;;21.50;99.90;;;;;;5080641;28;20204;-51
2022/10/11 09:48:50;;;;;;;3.20;2.90;;;21.60;99.90;;;;;;5090446;28;20207;-51
2022/10/11 09:51:22;;;;;;;5.50;3.57;;;21.10;99.90;;;;;;5086174;28;20223;-51
2022/10/11 09:53:52;;;;;;;5.97;3.87;;;20.60;99.90;;;;;;5075011;28;20301;-51
2022/10/11 09:56:20;;;;;;;4.10;2.97;;;20.10;99.90;;;;;;5078338;28;20597;-51
2022/10/11 09:58:47;;;;;;;10.43;3.60;;;19.90;99.90;;;;;;5088068;28;20207;-51
2022/10/11 10:01:26;;;;;;;4.83;3.37;;;19.60;99.90;;;;;;5079528;28;20208;-51
2022/10/11 10:04:10;;;;;;;3.40;3.10;;;19.40;99.90;;;;;;5079860;28;20302;-51
2022/10/11 10:06:39;;;;;;;5.03;3.07;;;19.20;99.90;;;;;;5090233;28;20200;-51
2022/10/11 10:09:26;;;;;;;5.03;3.27;;;19.10;99.90;;;;;;5076199;28;20628;-51
2022/10/11 10:11:54;;;;;;;4.57;3.60;;;18.90;99.90;;;;;;5078573;28;20717;-51
2022/10/11 10:14:25;;;;;;;4.23;3.23;;;18.80;99.90;;;;;;5080403;28;20235;-51
2022/10/11 10:17:01;;;;;;;5.70;3.13;;;18.70;99.90;;;;;;5084254;28;20203;-50
2022/10/11 10:19:29;;;;;;;4.57;4.10;;;18.80;99.90;;;;;;5079335;28;20654;-51
2022/10/11 10:21:57;;;;;;;3.83;3.50;;;18.90;99.90;;;;;;5080683;28;20244;-51
2022/10/11 10:24:36;;;;;;;4.00;3.80;;;18.70;99.90;;;;;;5080606;28;20197;-51
2022/10/11 10:27:15;;;;;;;4.80;3.67;;;18.70;99.90;;;;;;5084631;28;20188;-51
2022/10/11 10:29:45;;;;;;;3.80;3.47;;;18.80;99.90;;;;;;5090129;28;20208;-51
2022/10/11 10:32:16;;;;;;;12.07;4.43;;;18.90;99.90;;;;;;5083262;28;20221;-51
2022/10/11 10:34:56;;;;;;;4.77;4.50;;;18.80;99.90;;;;;;5088676;28;20228;-52
2022/10/11 10:37:29;;;;;;;7.40;4.50;;;18.70;99.90;;;;;;5091239;28;20589;-50
2022/10/11 10:40:02;;;;;;;4.90;4.40;;;18.70;99.90;;;;;;5091971;28;20223;-51
2022/10/11 10:42:29;;;;;;;4.07;3.63;;;18.70;99.90;;;;;;5092150;28;20252;-51
2022/10/11 10:44:58;;;;;;;4.70;4.40;;;18.60;99.90;;;;;;5089383;28;20205;-51
2022/10/11 10:47:49;;;;;;;5.20;4.47;;;18.50;99.90;;;;;;5090400;28;20196;-51
2022/10/11 10:50:23;;;;;;;6.17;5.10;;;18.60;99.90;;;;;;5082446;28;20723;-50
2022/10/11 10:53:09;;;;;;;5.17;4.67;;;18.70;99.90;;;;;;5073015;28;20220;-51
2022/10/11 10:55:41;;;;;;;5.67;5.20;;;18.70;99.90;;;;;;5071532;28;20746;-51
2022/10/11 10:58:28;;;;;;;6.03;4.43;;;19.00;99.90;;;;;;5071593;28;20205;-51
2022/10/11 11:01:01;;;;;;;4.50;4.17;;;19.20;99.90;;;;;;5078825;28;20204;-52
2022/10/11 11:03:33;;;;;;;8.80;4.37;;;19.20;99.90;;;;;;5078394;28;20221;-51
2022/10/11 11:06:04;;;;;;;6.27;4.00;;;19.40;99.90;;;;;;5082642;28;20677;-51
2022/10/11 11:08:58;;;;;;;5.03;4.53;;;19.60;99.90;;;;;;5090907;28;20204;-51
2022/10/11 11:11:36;;;;;;;5.23;4.17;;;19.70;99.90;;;;;;5087936;28;20219;-51
2022/10/11 11:14:14;;;;;;;4.13;3.57;;;19.70;99.90;;;;;;5091351;28;20201;-52
2022/10/11 11:16:48;;;;;;;4.93;4.53;;;19.60;99.90;;;;;;5081941;28;20662;-51
2022/10/11 11:19:27;;;;;;;4.40;4.03;;;19.60;99.90;;;;;;5077572;28;20200;-51
2022/10/11 11:21:59;;;;;;;4.70;4.03;;;19.60;99.90;;;;;;5071374;28;20232;-51
2022/10/11 11:24:39;;;;;;;8.23;4.13;;;19.50;99.90;;;;;;5071819;28;20251;-50
2022/10/11 11:27:19;;;;;;;7.60;4.23;;;19.50;99.90;;;;;;5071388;28;20205;-51
2022/10/11 11:29:55;;;;;;;8.10;4.10;;;19.50;99.90;;;;;;5073141;28;20204;-51
2022/10/11 11:32:36;;;;;;;8.47;4.43;;;19.60;99.90;;;;;;5077764;28;20208;-51
2022/10/11 11:35:10;;;;;;;5.77;4.33;;;19.50;99.90;;;;;;5091269;28;20227;-51
2022/10/11 11:37:40;;;;;;;4.37;3.97;;;19.50;99.90;;;;;;5091393;28;20207;-51
2022/10/11 11:40:17;;;;;;;4.77;3.83;;;19.40;99.90;;;;;;5090124;28;20200;-50
2022/10/11 11:42:48;;;;;;;7.57;4.70;;;19.50;99.90;;;;;;5078306;28;20662;-51
2022/10/11 11:45:21;;;;;;;12.37;4.00;;;19.30;99.90;;;;;;5078700;28;20255;-51
2022/10/11 11:47:54;;;;;;;4.30;3.83;;;19.40;99.90;;;;;;5079817;28;20269;-50
2022/10/11 11:50:25;;;;;;;6.03;4.23;;;19.50;99.90;;;;;;5083561;28;20205;-50
2022/10/11 11:52:57;;;;;;;9.67;5.23;;;19.60;99.90;;;;;;5080250;28;20307;-51
2022/10/11 11:55:32;;;;;;;5.50;5.00;;;19.70;99.90;;;;;;5087009;28;20221;-50
2022/10/11 11:58:12;;;;;;;6.60;4.70;;;19.70;99.90;;;;;;5086245;28;20204;-51
2022/10/11 12:00:49;;;;;;;5.73;3.93;;;19.80;99.90;;;;;;5078418;28;20762;-50
2022/10/11 12:03:21;;;;;;;7.97;4.60;;;19.80;99.90;;;;;;5083819;28;20220;-50
2022/10/11 12:06:17;;;;;;;8.00;4.63;;;19.70;99.90;;;;;;5072468;28;20197;-50
2022/10/11 12:08:47;;;;;;;4.53;4.00;;;19.60;99.90;;;;;;5079914;28;20286;-51
2022/10/11 12:11:23;;;;;;;8.33;5.40;;;19.60;99.90;;;;;;5075967;28;20215;-50
2022/10/11 12:13:54;;;;;;;10.53;4.77;;;19.70;99.90;;;;;;5077234;28;20681;-50
2022/10/11 12:16:22;;;;;;;9.47;4.97;;;19.70;99.90;;;;;;5083718;28;20217;-51
2022/10/11 12:18:52;;;;;;;4.80;3.57;;;19.60;99.90;;;;;;5078528;28;20262;-51
2022/10/11 12:21:27;;;;;;;9.03;4.50;;;19.60;99.90;;;;;;5073999;28;20253;-51
2022/10/11 12:23:55;;;;;;;6.57;4.77;;;19.70;99.90;;;;;;5071844;28;20438;-51
2022/10/11 12:26:35;;;;;;;8.13;4.20;;;19.80;99.90;;;;;;5079281;28;20529;-50
2022/10/11 12:29:34;;;;;;;8.43;4.20;;;19.90;99.90;;;;;;5089339;28;20193;-51
2022/10/11 12:32:48;;;;;;;10.03;4.97;;;20.00;99.90;;;;;;5085313;28;20217;-52
2022/10/11 12:35:57;;;;;;;8.93;4.77;;;19.90;99.90;;;;;;5074084;28;20252;-52
2022/10/11 12:38:27;;;;;;;6.60;3.97;;;19.90;99.90;;;;;;5071759;28;20189;-51
2022/10/11 12:40:55;;;;;;;6.23;5.00;;;19.70;99.90;;;;;;5074170;28;20667;-51
2022/10/11 12:43:35;;;;;;;8.67;5.47;;;19.70;99.90;;;;;;5076813;28;20227;-51
2022/10/11 12:46:47;;;;;;;6.03;3.93;;;19.80;99.90;;;;;;5082517;28;20185;-52
2022/10/11 12:49:34;;;;;;;16.83;5.97;;;19.70;99.90;;;;;;5046456;28;20205;-51
2022/10/11 12:52:02;;;;;;;7.73;5.17;;;19.70;99.90;;;;;;5082420;28;20216;-51
2022/10/11 12:55:03;;;;;;;10.50;5.20;;;19.60;99.90;;;;;;5073767;28;20251;-50
2022/10/11 12:58:18;;;;;;;10.63;5.27;;;19.50;99.90;;;;;;5074235;28;20197;-51
2022/10/11 13:01:11;;;;;;;5.20;4.70;;;19.50;99.90;;;;;;4999468;28;20207;-51
2022/10/11 13:03:44;;;;;;;4.60;4.20;;;19.50;99.90;;;;;;5087160;28;20276;-51
2022/10/11 13:06:15;;;;;;;9.13;4.70;;;19.50;99.90;;;;;;5093846;28;20249;-51
2022/10/11 13:08:45;;;;;;;7.43;5.97;;;19.60;99.90;;;;;;5074588;28;20204;-51
2022/10/11 13:11:20;;;;;;;4.33;3.57;;;19.60;99.90;;;;;;5074271;28;20201;-51
2022/10/11 13:13:52;;;;;;;8.60;4.33;;;19.60;99.90;;;;;;5073723;28;20205;-51
2022/10/11 13:16:22;;;;;;;10.53;4.43;;;19.60;99.90;;;;;;5079562;28;20220;-51
2022/10/11 13:18:53;;;;;;;8.27;5.50;;;19.50;99.90;;;;;;5075118;28;20197;-51
2022/10/11 13:21:27;;;;;;;6.77;4.60;;;19.50;99.90;;;;;;5087444;28;20207;-51
2022/10/11 13:23:56;;;;;;;11.53;5.17;;;19.50;99.90;;;;;;5093126;28;20229;-50
2022/10/11 13:26:24;;;;;;;9.60;4.20;;;19.50;99.90;;;;;;5092800;28;20200;-50
2022/10/11 13:28:51;;;;;;;11.03;5.13;;;19.50;99.90;;;;;;5093809;28;20201;-51
2022/10/11 13:31:18;;;;;;;6.17;4.20;;;19.50;99.90;;;;;;5093624;28;20208;-51